Masuei Maru No41 — JD2285 — position and weather

sailwx.info

Track history (hours):
 
Tides and Currents Weather Stations Pressure Air Temp Water Temp Dewpoint Dewpoint Depression Visibility Wind Speed Wind Dir Waves Ship Positions

Masuei Maru No41

Last reported at 2018-Jan-21 23:30 UTC. Time now 2018-Jan-21 23:55 UTC.
Position N 34°20' E 135°05'.

Length 32 m.

Type: Tug. MMSI: 431301814.

Date/timePositionNaut miles runAvg speedWind from/ knotsBaromVisibWave heightAir tempDewpointWater temp
2018-Jan-21 23:30N 34°20' E 135°05'510.1
2018-Jan-21 23:00N 34°22' E 135°10'611.4
2018-Jan-21 22:30N 34°25' E 135°16'611.2
2018-Jan-21 22:00N 34°30' E 135°20'3 6.1
2018-Jan-21 21:26N 34°31' E 135°24'0 0.1
2018-Jan-21 20:59N 34°31' E 135°24'0 0.0
2018-Jan-21 06:58N 34°31' E 135°24'2 4.7
2018-Jan-21 06:30N 34°33' E 135°25'1 1.9
2018-Jan-21 06:00N 34°33' E 135°25'1 1.0
2018-Jan-21 05:29N 34°33' E 135°25'0 0.0
2018-Jan-21 05:00N 34°33' E 135°25'2 4.0
2018-Jan-21 04:30N 34°31' E 135°24'0 0.0
2018-Jan-21 04:00N 34°31' E 135°24'0 0.0
2018-Jan-21 03:30N 34°31' E 135°24'0 0.0
2018-Jan-21 03:00N 34°31' E 135°24'0 0.0
2018-Jan-21 02:30N 34°31' E 135°24'0 0.0
2018-Jan-21 02:00N 34°31' E 135°24'0 0.0
2018-Jan-21 01:30N 34°31' E 135°24'2 3.9
2018-Jan-21 01:01N 34°33' E 135°24'1 2.1
2018-Jan-21 00:29N 34°33' E 135°25'0 0.4
2018-Jan-21 00:00N 34°33' E 135°25'4 8.7
2018-Jan-20 23:30N 34°37' E 135°23'4 8.0
2018-Jan-20 23:00N 34°39' E 135°28'0 0.0
2018-Jan-20 22:30N 34°39' E 135°28'0 0.0
2018-Jan-20 22:00N 34°39' E 135°28'0 0.0
2018-Jan-20 06:00N 34°39' E 135°28'3 6.7
2018-Jan-20 05:30N 34°38' E 135°24'2 4.2
2018-Jan-20 04:56N 34°36' E 135°24'0 0.0
2018-Jan-20 04:29N 34°36' E 135°24'0 0.0
2018-Jan-20 03:59N 34°36' E 135°24'0 0.0
2018-Jan-20 03:27N 34°36' E 135°24'4 7.9
2018-Jan-20 03:00N 34°33' E 135°25'0 0.0
2018-Jan-20 02:29N 34°33' E 135°25'1 1.7
2018-Jan-20 02:00N 34°33' E 135°25'3 6.7
2018-Jan-20 01:30N 34°33' E 135°21'1 1.3
2018-Jan-20 00:59N 34°34' E 135°20'2 4.2
2018-Jan-20 00:30N 34°32' E 135°22'2 3.5
2018-Jan-20 00:00N 34°31' E 135°23'0 0.0
2018-Jan-19 23:30N 34°31' E 135°23'0 0.0
2018-Jan-19 23:00N 34°31' E 135°23'0 0.0
2018-Jan-19 22:30N 34°31' E 135°23'0 0.4
2018-Jan-19 22:00N 34°31' E 135°23'1 2.3
2018-Jan-19 21:30N 34°32' E 135°23'2 4.1
2018-Jan-19 21:00N 34°31' E 135°21'510.1
2018-Jan-19 20:30N 34°27' E 135°18'510.3
2018-Jan-19 20:00N 34°23' E 135°13'510.6
2018-Jan-19 19:30N 34°21' E 135°07'5 9.6
2018-Jan-19 19:00N 34°17' E 135°04'4 8.7
2018-Jan-19 18:30N 34°13' E 135°06'2 4.3
2018-Jan-19 18:00N 34°13' E 135°09'0 0.0
2018-Jan-19 08:51N 34°13' E 135°09'0 1.1
2018-Jan-19 08:29N 34°13' E 135°09'0 0.0
2018-Jan-18 22:42N 34°13' E 135°09'0 2.3
2018-Jan-18 22:30N 34°13' E 135°09'0 0.4
2018-Jan-18 21:58N 34°13' E 135°08'1 1.2
2018-Jan-18 21:28N 34°13' E 135°09'0 0.0
2018-Jan-18 20:58N 34°13' E 135°09'0 0.0
2018-Jan-18 07:22N 34°13' E 135°09'3 7.7
2018-Jan-18 07:00N 34°11' E 135°08'3 2.3
2018-Jan-18 05:37N 34°08' E 135°07'1 5.7
2018-Jan-18 05:25N 34°08' E 135°06'4 6.0
2018-Jan-18 04:47N 34°12' E 135°08'2 5.3
2018-Jan-18 04:28N 34°13' E 135°09'0 0.0
2018-Jan-18 03:59N 34°13' E 135°09'0 0.0
2018-Jan-18 03:29N 34°13' E 135°09'0 0.0
2018-Jan-18 02:59N 34°13' E 135°09'0 0.0
2018-Jan-18 02:29N 34°13' E 135°09'0 0.0
2018-Jan-18 01:58N 34°13' E 135°09'0 0.0
2018-Jan-18 01:29N 34°13' E 135°09'0 0.0
2018-Jan-18 00:58N 34°13' E 135°09'0 0.0
2018-Jan-17 23:59N 34°13' E 135°09'0 0.1
2018-Jan-17 23:56N 34°13' E 135°09'  
2018-Jan-12 11:16N 34°13' E 135°09'1 2.5
2018-Jan-12 10:55N 34°12' E 135°09'1 1.5
2018-Jan-12 10:30N 34°13' E 135°08'1 0.1
2018-Jan-12 06:56N 34°13' E 135°09'1 1.9
2018-Jan-12 06:28N 34°12' E 135°09'1 2.8
2018-Jan-12 06:00N 34°13' E 135°07'1 2.9
2018-Jan-12 05:30N 34°13' E 135°09'0 0.0
2018-Jan-12 04:57N 34°13' E 135°09'0 0.0
2018-Jan-12 04:30N 34°13' E 135°09'0 0.0
2018-Jan-12 04:00N 34°13' E 135°09'0 0.9
2018-Jan-12 03:30N 34°13' E 135°09'0 0.8
2018-Jan-12 02:59N 34°13' E 135°09'0 0.0
2018-Jan-12 02:29N 34°13' E 135°09'0 0.0
2018-Jan-12 01:59N 34°13' E 135°09'0 0.0
2018-Jan-12 01:26N 34°13' E 135°09'0 0.0
2018-Jan-12 00:56N 34°13' E 135°09'0 0.0
2018-Jan-12 00:29N 34°13' E 135°09'0 0.0
2018-Jan-11 23:56N 34°13' E 135°09'  
Track history (hours):
 
Tides and Currents Weather Stations Pressure Air Temp Water Temp Dewpoint Dewpoint Depression Visibility Wind Speed Wind Dir Waves Ship Positions

Masuei Maru No41

Last reported at 2018-Jan-21 23:30 UTC. Time now 2018-Jan-21 23:55 UTC.
Position N 34°20' E 135°05'.

Length 32 m.

Type: Tug. MMSI: 431301814.

Date/timePositionNaut miles runAvg speedWind from/ knotsBaromVisibWave heightAir tempDewpointWater temp
2018-Jan-21 23:30N 34°20' E 135°05'510.1
2018-Jan-21 23:00N 34°22' E 135°10'611.4
2018-Jan-21 22:30N 34°25' E 135°16'611.2
2018-Jan-21 22:00N 34°30' E 135°20'3 6.1
2018-Jan-21 21:26N 34°31' E 135°24'0 0.1
2018-Jan-21 20:59N 34°31' E 135°24'0 0.0
2018-Jan-21 06:58N 34°31' E 135°24'2 4.7
2018-Jan-21 06:30N 34°33' E 135°25'1 1.9
2018-Jan-21 06:00N 34°33' E 135°25'1 1.0
2018-Jan-21 05:29N 34°33' E 135°25'0 0.0
2018-Jan-21 05:00N 34°33' E 135°25'2 4.0
2018-Jan-21 04:30N 34°31' E 135°24'0 0.0
2018-Jan-21 04:00N 34°31' E 135°24'0 0.0
2018-Jan-21 03:30N 34°31' E 135°24'0 0.0
2018-Jan-21 03:00N 34°31' E 135°24'0 0.0
2018-Jan-21 02:30N 34°31' E 135°24'0 0.0
2018-Jan-21 02:00N 34°31' E 135°24'0 0.0
2018-Jan-21 01:30N 34°31' E 135°24'2 3.9
2018-Jan-21 01:01N 34°33' E 135°24'1 2.1
2018-Jan-21 00:29N 34°33' E 135°25'0 0.4
2018-Jan-21 00:00N 34°33' E 135°25'4 8.7
2018-Jan-20 23:30N 34°37' E 135°23'4 8.0
2018-Jan-20 23:00N 34°39' E 135°28'0 0.0
2018-Jan-20 22:30N 34°39' E 135°28'0 0.0
2018-Jan-20 22:00N 34°39' E 135°28'0 0.0
2018-Jan-20 06:00N 34°39' E 135°28'3 6.7
2018-Jan-20 05:30N 34°38' E 135°24'2 4.2
2018-Jan-20 04:56N 34°36' E 135°24'0 0.0
2018-Jan-20 04:29N 34°36' E 135°24'0 0.0
2018-Jan-20 03:59N 34°36' E 135°24'0 0.0
2018-Jan-20 03:27N 34°36' E 135°24'4 7.9
2018-Jan-20 03:00N 34°33' E 135°25'0 0.0
2018-Jan-20 02:29N 34°33' E 135°25'1 1.7
2018-Jan-20 02:00N 34°33' E 135°25'3 6.7
2018-Jan-20 01:30N 34°33' E 135°21'1 1.3
2018-Jan-20 00:59N 34°34' E 135°20'2 4.2
2018-Jan-20 00:30N 34°32' E 135°22'2 3.5
2018-Jan-20 00:00N 34°31' E 135°23'0 0.0
2018-Jan-19 23:30N 34°31' E 135°23'0 0.0
2018-Jan-19 23:00N 34°31' E 135°23'0 0.0
2018-Jan-19 22:30N 34°31' E 135°23'0 0.4
2018-Jan-19 22:00N 34°31' E 135°23'1 2.3
2018-Jan-19 21:30N 34°32' E 135°23'2 4.1
2018-Jan-19 21:00N 34°31' E 135°21'510.1
2018-Jan-19 20:30N 34°27' E 135°18'510.3
2018-Jan-19 20:00N 34°23' E 135°13'510.6
2018-Jan-19 19:30N 34°21' E 135°07'5 9.6
2018-Jan-19 19:00N 34°17' E 135°04'4 8.7
2018-Jan-19 18:30N 34°13' E 135°06'2 4.3
2018-Jan-19 18:00N 34°13' E 135°09'0 0.0
2018-Jan-19 08:51N 34°13' E 135°09'0 1.1
2018-Jan-19 08:29N 34°13' E 135°09'0 0.0
2018-Jan-18 22:42N 34°13' E 135°09'0 2.3
2018-Jan-18 22:30N 34°13' E 135°09'0 0.4
2018-Jan-18 21:58N 34°13' E 135°08'1 1.2
2018-Jan-18 21:28N 34°13' E 135°09'0 0.0
2018-Jan-18 20:58N 34°13' E 135°09'0 0.0
2018-Jan-18 07:22N 34°13' E 135°09'3 7.7
2018-Jan-18 07:00N 34°11' E 135°08'3 2.3
2018-Jan-18 05:37N 34°08' E 135°07'1 5.7
2018-Jan-18 05:25N 34°08' E 135°06'4 6.0
2018-Jan-18 04:47N 34°12' E 135°08'2 5.3
2018-Jan-18 04:28N 34°13' E 135°09'0 0.0
2018-Jan-18 03:59N 34°13' E 135°09'0 0.0
2018-Jan-18 03:29N 34°13' E 135°09'0 0.0
2018-Jan-18 02:59N 34°13' E 135°09'0 0.0
2018-Jan-18 02:29N 34°13' E 135°09'0 0.0
2018-Jan-18 01:58N 34°13' E 135°09'0 0.0
2018-Jan-18 01:29N 34°13' E 135°09'0 0.0
2018-Jan-18 00:58N 34°13' E 135°09'0 0.0
2018-Jan-17 23:59N 34°13' E 135°09'0 0.1
2018-Jan-17 23:56N 34°13' E 135°09'  
2018-Jan-12 11:16N 34°13' E 135°09'1 2.5
2018-Jan-12 10:55N 34°12' E 135°09'1 1.5
2018-Jan-12 10:30N 34°13' E 135°08'1 0.1
2018-Jan-12 06:56N 34°13' E 135°09'1 1.9
2018-Jan-12 06:28N 34°12' E 135°09'1 2.8
2018-Jan-12 06:00N 34°13' E 135°07'1 2.9
2018-Jan-12 05:30N 34°13' E 135°09'0 0.0
2018-Jan-12 04:57N 34°13' E 135°09'0 0.0
2018-Jan-12 04:30N 34°13' E 135°09'0 0.0
2018-Jan-12 04:00N 34°13' E 135°09'0 0.9
2018-Jan-12 03:30N 34°13' E 135°09'0 0.8
2018-Jan-12 02:59N 34°13' E 135°09'0 0.0
2018-Jan-12 02:29N 34°13' E 135°09'0 0.0
2018-Jan-12 01:59N 34°13' E 135°09'0 0.0
2018-Jan-12 01:26N 34°13' E 135°09'0 0.0
2018-Jan-12 00:56N 34°13' E 135°09'0 0.0
2018-Jan-12 00:29N 34°13' E 135°09'0 0.0
2018-Jan-11 23:56N 34°13' E 135°09'  

Dump ship's entire track history